sensor_id;sensor_type;location;lat;lon;timestamp;P1;durP1;ratioP1;P2;durP2;ratioP2
64342;SDS011;50675;53.530;-6.312;2023-01-06T08:23:37;8.75;;;1.70;;
64342;SDS011;50675;53.530;-6.312;2023-01-06T08:26:14;3.60;;;1.23;;
64342;SDS011;50675;53.530;-6.312;2023-01-06T08:28:41;7.68;;;1.58;;
64342;SDS011;50675;53.530;-6.312;2023-01-06T08:31:12;4.75;;;2.20;;
64342;SDS011;50675;53.530;-6.312;2023-01-06T08:33:40;5.82;;;1.95;;
64342;SDS011;50675;53.530;-6.312;2023-01-06T08:39:10;6.93;;;1.45;;
64342;SDS011;50675;53.530;-6.312;2023-01-06T08:41:37;5.22;;;1.48;;
64342;SDS011;50675;53.530;-6.312;2023-01-06T08:44:03;4.63;;;1.30;;
64342;SDS011;50675;53.530;-6.312;2023-01-06T08:46:31;7.00;;;1.60;;
64342;SDS011;50675;53.530;-6.312;2023-01-06T08:48:58;8.65;;;1.75;;
64342;SDS011;50675;53.530;-6.312;2023-01-06T08:51:26;5.38;;;1.65;;
64342;SDS011;50675;53.530;-6.312;2023-01-06T08:53:52;2.72;;;1.60;;
64342;SDS011;50675;53.530;-6.312;2023-01-06T08:56:22;4.53;;;1.70;;
64342;SDS011;50675;53.530;-6.312;2023-01-06T08:58:54;5.20;;;2.03;;
64342;SDS011;50675;53.530;-6.312;2023-01-06T09:01:23;2.72;;;1.08;;
64342;SDS011;50675;53.530;-6.312;2023-01-06T09:03:52;3.80;;;1.70;;
64342;SDS011;50675;53.530;-6.312;2023-01-06T09:06:18;4.18;;;2.00;;
64342;SDS011;50675;53.530;-6.312;2023-01-06T09:08:45;5.22;;;1.58;;
64342;SDS011;50675;53.530;-6.312;2023-01-06T09:11:13;7.00;;;1.50;;
64342;SDS011;50675;53.530;-6.312;2023-01-06T09:13:41;2.45;;;1.67;;
64342;SDS011;50675;53.530;-6.312;2023-01-06T09:16:08;9.95;;;2.45;;
64342;SDS011;50675;53.530;-6.312;2023-01-06T09:18:35;7.13;;;2.00;;
64342;SDS011;50675;53.530;-6.312;2023-01-06T09:21:01;7.13;;;1.70;;
64342;SDS011;50675;53.530;-6.312;2023-01-06T09:23:28;4.72;;;1.23;;
64342;SDS011;50675;53.530;-6.312;2023-01-06T09:25:54;5.65;;;1.55;;
64342;SDS011;50675;53.530;-6.312;2023-01-06T09:28:22;3.55;;;1.50;;
64342;SDS011;50675;53.530;-6.312;2023-01-06T09:30:49;4.00;;;1.52;;
64342;SDS011;50675;53.530;-6.312;2023-01-06T09:33:15;6.47;;;1.45;;
64342;SDS011;50675;53.530;-6.312;2023-01-06T09:35:44;4.05;;;1.63;;
64342;SDS011;50675;53.530;-6.312;2023-01-06T09:38:11;6.93;;;1.90;;
64342;SDS011;50675;53.530;-6.312;2023-01-06T09:43:23;3.97;;;1.65;;
64342;SDS011;50675;53.530;-6.312;2023-01-06T09:45:55;10.35;;;2.53;;
64342;SDS011;50675;53.530;-6.312;2023-01-06T09:48:45;8.00;;;1.98;;
64342;SDS011;50675;53.530;-6.312;2023-01-06T09:51:28;5.97;;;1.80;;
64342;SDS011;50675;53.530;-6.312;2023-01-06T09:53:58;4.70;;;1.30;;
64342;SDS011;50675;53.530;-6.312;2023-01-06T09:56:34;3.80;;;1.25;;
64342;SDS011;50675;53.530;-6.312;2023-01-06T09:59:03;4.22;;;1.80;;
64342;SDS011;50675;53.530;-6.312;2023-01-06T10:01:44;6.82;;;1.67;;
64342;SDS011;50675;53.530;-6.312;2023-01-06T10:04:16;9.52;;;1.70;;
64342;SDS011;50675;53.530;-6.312;2023-01-06T10:23:06;4.45;;;1.30;;
64342;SDS011;50675;53.530;-6.312;2023-01-06T10:26:28;6.72;;;1.45;;
64342;SDS011;50675;53.530;-6.312;2023-01-06T10:28:43;7.97;;;1.55;;
64342;SDS011;50675;53.530;-6.312;2023-01-06T10:35:11;7.72;;;1.83;;
64342;SDS011;50675;53.530;-6.312;2023-01-06T10:37:40;4.57;;;1.25;;
64342;SDS011;50675;53.530;-6.312;2023-01-06T10:40:27;8.52;;;1.20;;
64342;SDS011;50675;53.530;-6.312;2023-01-06T10:42:57;6.70;;;1.25;;
64342;SDS011;50675;53.530;-6.312;2023-01-06T10:45:32;6.25;;;2.17;;
64342;SDS011;50675;53.530;-6.312;2023-01-06T10:48:04;4.80;;;1.55;;
64342;SDS011;50675;53.530;-6.312;2023-01-06T10:50:41;6.85;;;1.98;;
64342;SDS011;50675;53.530;-6.312;2023-01-06T10:53:08;7.32;;;1.60;;
64342;SDS011;50675;53.530;-6.312;2023-01-06T10:55:52;5.38;;;1.38;;
64342;SDS011;50675;53.530;-6.312;2023-01-06T11:01:11;4.97;;;1.48;;
64342;SDS011;50675;53.530;-6.312;2023-01-06T11:03:44;7.70;;;1.90;;
64342;SDS011;50675;53.530;-6.312;2023-01-06T11:06:17;1.83;;;1.15;;
64342;SDS011;50675;53.530;-6.312;2023-01-06T11:08:48;7.07;;;1.23;;
64342;SDS011;50675;53.530;-6.312;2023-01-06T11:11:14;4.57;;;1.30;;
64342;SDS011;50675;53.530;-6.312;2023-01-06T11:13:46;2.85;;;1.42;;
64342;SDS011;50675;53.530;-6.312;2023-01-06T11:16:19;5.07;;;1.27;;
64342;SDS011;50675;53.530;-6.312;2023-01-06T11:18:52;7.55;;;1.60;;
64342;SDS011;50675;53.530;-6.312;2023-01-06T11:21:22;4.35;;;1.13;;
64342;SDS011;50675;53.530;-6.312;2023-01-06T11:24:16;3.63;;;1.08;;
64342;SDS011;50675;53.530;-6.312;2023-01-06T11:29:55;2.95;;;0.98;;
64342;SDS011;50675;53.530;-6.312;2023-01-06T11:32:21;5.30;;;1.60;;
64342;SDS011;50675;53.530;-6.312;2023-01-06T11:37:35;6.45;;;1.38;;
64342;SDS011;50675;53.530;-6.312;2023-01-06T11:42:55;4.75;;;1.02;;
64342;SDS011;50675;53.530;-6.312;2023-01-06T11:45:31;6.25;;;1.52;;
64342;SDS011;50675;53.530;-6.312;2023-01-06T11:50:57;11.05;;;2.00;;
64342;SDS011;50675;53.530;-6.312;2023-01-06T11:53:33;5.80;;;1.60;;
64342;SDS011;50675;53.530;-6.312;2023-01-06T11:58:41;5.50;;;1.20;;
64342;SDS011;50675;53.530;-6.312;2023-01-06T12:06:55;5.03;;;1.40;;
64342;SDS011;50675;53.530;-6.312;2023-01-06T14:32:03;6.30;;;1.80;;
64342;SDS011;50675;53.530;-6.312;2023-01-06T14:34:33;7.45;;;1.65;;
64342;SDS011;50675;53.530;-6.312;2023-01-06T14:37:02;8.88;;;1.88;;
64342;SDS011;50675;53.530;-6.312;2023-01-06T14:39:34;8.90;;;1.80;;
64342;SDS011;50675;53.530;-6.312;2023-01-06T14:44:30;8.77;;;2.20;;
64342;SDS011;50675;53.530;-6.312;2023-01-06T14:50:16;8.48;;;1.42;;
64342;SDS011;50675;53.530;-6.312;2023-01-06T14:52:52;10.05;;;1.80;;
64342;SDS011;50675;53.530;-6.312;2023-01-06T14:55:22;5.32;;;1.88;;
64342;SDS011;50675;53.530;-6.312;2023-01-06T14:57:51;7.90;;;1.48;;
64342;SDS011;50675;53.530;-6.312;2023-01-06T15:00:19;9.20;;;1.58;;
64342;SDS011;50675;53.530;-6.312;2023-01-06T15:05:33;7.15;;;1.48;;
64342;SDS011;50675;53.530;-6.312;2023-01-06T15:08:06;4.90;;;1.85;;
64342;SDS011;50675;53.530;-6.312;2023-01-06T15:10:42;7.63;;;1.73;;
64342;SDS011;50675;53.530;-6.312;2023-01-06T15:13:22;5.85;;;1.42;;
64342;SDS011;50675;53.530;-6.312;2023-01-06T15:36:31;6.82;;;2.20;;
64342;SDS011;50675;53.530;-6.312;2023-01-06T15:56:40;5.85;;;1.63;;
64342;SDS011;50675;53.530;-6.312;2023-01-06T16:03:01;4.70;;;1.30;;
64342;SDS011;50675;53.530;-6.312;2023-01-06T16:06:12;6.43;;;1.50;;
64342;SDS011;50675;53.530;-6.312;2023-01-06T16:12:16;6.95;;;1.65;;
64342;SDS011;50675;53.530;-6.312;2023-01-06T16:14:51;6.03;;;1.13;;
64342;SDS011;50675;53.530;-6.312;2023-01-06T16:19:57;3.70;;;1.20;;
64342;SDS011;50675;53.530;-6.312;2023-01-06T16:25:02;7.45;;;2.65;;
64342;SDS011;50675;53.530;-6.312;2023-01-06T16:27:47;4.15;;;1.70;;
64342;SDS011;50675;53.530;-6.312;2023-01-06T16:30:22;9.25;;;2.22;;
64342;SDS011;50675;53.530;-6.312;2023-01-06T16:32:51;8.02;;;2.10;;
64342;SDS011;50675;53.530;-6.312;2023-01-06T16:35:23;6.40;;;1.33;;
64342;SDS011;50675;53.530;-6.312;2023-01-06T16:37:51;4.57;;;1.40;;
64342;SDS011;50675;53.530;-6.312;2023-01-06T16:40:21;6.88;;;1.63;;
64342;SDS011;50675;53.530;-6.312;2023-01-06T16:43:01;2.08;;;1.15;;
64342;SDS011;50675;53.530;-6.312;2023-01-06T16:45:32;5.85;;;1.73;;
64342;SDS011;50675;53.530;-6.312;2023-01-06T16:48:05;5.60;;;1.85;;
64342;SDS011;50675;53.530;-6.312;2023-01-06T16:55:39;5.07;;;2.28;;
64342;SDS011;50675;53.530;-6.312;2023-01-06T16:58:16;8.50;;;2.70;;
64342;SDS011;50675;53.530;-6.312;2023-01-06T17:00:44;7.55;;;2.78;;
64342;SDS011;50675;53.530;-6.312;2023-01-06T17:03:21;7.90;;;2.88;;
64342;SDS011;50675;53.530;-6.312;2023-01-06T17:05:49;7.13;;;2.70;;
64342;SDS011;50675;53.530;-6.312;2023-01-06T17:08:22;6.63;;;2.70;;
64342;SDS011;50675;53.530;-6.312;2023-01-06T17:10:52;5.07;;;2.50;;
64342;SDS011;50675;53.530;-6.312;2023-01-06T17:13:18;8.57;;;2.58;;
64342;SDS011;50675;53.530;-6.312;2023-01-06T17:16:00;6.15;;;2.70;;
64342;SDS011;50675;53.530;-6.312;2023-01-06T17:18:36;7.25;;;3.08;;
64342;SDS011;50675;53.530;-6.312;2023-01-06T17:21:32;10.02;;;2.40;;
64342;SDS011;50675;53.530;-6.312;2023-01-06T17:24:16;7.22;;;2.65;;
64342;SDS011;50675;53.530;-6.312;2023-01-06T17:26:57;9.32;;;3.42;;
64342;SDS011;50675;53.530;-6.312;2023-01-06T17:29:37;6.32;;;3.00;;
64342;SDS011;50675;53.530;-6.312;2023-01-06T17:32:03;11.82;;;3.28;;
64342;SDS011;50675;53.530;-6.312;2023-01-06T17:41:58;11.93;;;4.07;;
64342;SDS011;50675;53.530;-6.312;2023-01-06T17:49:39;13.70;;;3.78;;
64342;SDS011;50675;53.530;-6.312;2023-01-06T17:52:11;14.48;;;3.95;;
64342;SDS011;50675;53.530;-6.312;2023-01-06T17:54:38;9.32;;;3.65;;
64342;SDS011;50675;53.530;-6.312;2023-01-06T17:57:22;11.45;;;4.25;;
64342;SDS011;50675;53.530;-6.312;2023-01-06T17:59:51;13.65;;;4.80;;
64342;SDS011;50675;53.530;-6.312;2023-01-06T18:02:30;12.63;;;5.40;;
64342;SDS011;50675;53.530;-6.312;2023-01-06T18:08:31;9.82;;;4.43;;
64342;SDS011;50675;53.530;-6.312;2023-01-06T18:10:43;13.15;;;4.35;;
64342;SDS011;50675;53.530;-6.312;2023-01-06T18:13:23;12.43;;;3.67;;
64342;SDS011;50675;53.530;-6.312;2023-01-06T18:15:58;9.10;;;3.17;;
64342;SDS011;50675;53.530;-6.312;2023-01-06T18:23:45;14.90;;;4.63;;
64342;SDS011;50675;53.530;-6.312;2023-01-06T18:28:51;11.02;;;3.60;;
64342;SDS011;50675;53.530;-6.312;2023-01-06T18:31:18;12.25;;;2.88;;
64342;SDS011;50675;53.530;-6.312;2023-01-06T18:33:47;12.10;;;3.55;;
64342;SDS011;50675;53.530;-6.312;2023-01-06T18:36:14;13.38;;;4.13;;
64342;SDS011;50675;53.530;-6.312;2023-01-06T18:38:40;17.05;;;4.32;;
64342;SDS011;50675;53.530;-6.312;2023-01-06T18:41:12;13.82;;;3.60;;
64342;SDS011;50675;53.530;-6.312;2023-01-06T18:43:39;12.02;;;3.53;;
64342;SDS011;50675;53.530;-6.312;2023-01-06T18:46:12;9.55;;;3.30;;
64342;SDS011;50675;53.530;-6.312;2023-01-06T18:48:45;13.00;;;4.07;;
64342;SDS011;50675;53.530;-6.312;2023-01-06T18:51:17;8.98;;;3.42;;
64342;SDS011;50675;53.530;-6.312;2023-01-06T18:53:45;11.13;;;3.70;;
64342;SDS011;50675;53.530;-6.312;2023-01-06T18:56:14;12.20;;;3.75;;
64342;SDS011;50675;53.530;-6.312;2023-01-06T18:58:46;10.02;;;3.60;;
64342;SDS011;50675;53.530;-6.312;2023-01-06T19:01:28;12.52;;;4.53;;
64342;SDS011;50675;53.530;-6.312;2023-01-06T19:04:03;15.88;;;4.18;;
64342;SDS011;50675;53.530;-6.312;2023-01-06T19:06:39;15.48;;;4.47;;
64342;SDS011;50675;53.530;-6.312;2023-01-06T19:09:20;12.25;;;3.78;;
64342;SDS011;50675;53.530;-6.312;2023-01-06T20:55:18;6.25;;;1.90;;
64342;SDS011;50675;53.530;-6.312;2023-01-06T23:34:06;2.03;;;0.90;;
